sensor_id;sensor_type;location;lat;lon;timestamp;pressure;altitude;pressure_sealevel;temperature;humidity
74370;BME280;62805;44.644;10.942;2023-05-10T00:00:04;100758.69;;;16.23;80.07
74370;BME280;62805;44.644;10.942;2023-05-10T00:02:30;100758.88;;;16.26;80.38
74370;BME280;62805;44.644;10.942;2023-05-10T00:04:55;100753.66;;;16.20;80.11
74370;BME280;62805;44.644;10.942;2023-05-10T00:07:20;100754.66;;;16.24;79.77
74370;BME280;62805;44.644;10.942;2023-05-10T00:09:46;100746.47;;;16.22;81.00
74370;BME280;62805;44.644;10.942;2023-05-10T00:12:11;100732.16;;;15.92;80.57
74370;BME280;62805;44.644;10.942;2023-05-10T00:14:37;100742.63;;;16.05;81.31
74370;BME280;62805;44.644;10.942;2023-05-10T00:17:02;100753.25;;;16.13;81.47
74370;BME280;62805;44.644;10.942;2023-05-10T00:19:27;100761.41;;;16.14;81.89
74370;BME280;62805;44.644;10.942;2023-05-10T00:21:53;100756.78;;;16.05;81.67
74370;BME280;62805;44.644;10.942;2023-05-10T00:24:18;100748.41;;;16.00;82.74
74370;BME280;62805;44.644;10.942;2023-05-10T00:26:43;100749.88;;;15.84;82.67
74370;BME280;62805;44.644;10.942;2023-05-10T00:29:09;100752.09;;;15.87;83.98
74370;BME280;62805;44.644;10.942;2023-05-10T00:31:34;100746.22;;;15.83;83.54
74370;BME280;62805;44.644;10.942;2023-05-10T00:33:59;100734.34;;;15.68;85.19
74370;BME280;62805;44.644;10.942;2023-05-10T00:36:25;100737.50;;;15.66;85.51
74370;BME280;62805;44.644;10.942;2023-05-10T00:38:51;100734.34;;;15.54;86.36
74370;BME280;62805;44.644;10.942;2023-05-10T00:41:16;100731.22;;;15.69;86.95
74370;BME280;62805;44.644;10.942;2023-05-10T00:43:41;100731.13;;;15.74;86.91
74370;BME280;62805;44.644;10.942;2023-05-10T00:46:07;100731.22;;;15.69;85.19
74370;BME280;62805;44.644;10.942;2023-05-10T00:48:33;100732.47;;;15.63;85.58
74370;BME280;62805;44.644;10.942;2023-05-10T00:50:58;100739.72;;;15.69;86.07
74370;BME280;62805;44.644;10.942;2023-05-10T00:53:24;100716.50;;;15.40;86.18
74370;BME280;62805;44.644;10.942;2023-05-10T00:55:50;100731.38;;;15.32;86.70
74370;BME280;62805;44.644;10.942;2023-05-10T00:58:16;100725.59;;;15.37;87.19
74370;BME280;62805;44.644;10.942;2023-05-10T01:00:42;100720.03;;;15.32;88.08
74370;BME280;62805;44.644;10.942;2023-05-10T01:03:10;100722.22;;;15.35;88.42
74370;BME280;62805;44.644;10.942;2023-05-10T01:05:35;100718.19;;;15.41;88.38
74370;BME280;62805;44.644;10.942;2023-05-10T01:08:01;100718.25;;;15.36;88.87
74370;BME280;62805;44.644;10.942;2023-05-10T01:10:27;100724.63;;;15.28;89.74
74370;BME280;62805;44.644;10.942;2023-05-10T01:12:53;100707.44;;;15.38;90.50
74370;BME280;62805;44.644;10.942;2023-05-10T01:15:20;100710.38;;;15.33;89.91
74370;BME280;62805;44.644;10.942;2023-05-10T01:17:46;100713.56;;;15.45;90.54
74370;BME280;62805;44.644;10.942;2023-05-10T01:20:12;100713.09;;;15.38;90.52
74370;BME280;62805;44.644;10.942;2023-05-10T01:34:25;100737.81;;;15.19;92.08
74370;BME280;62805;44.644;10.942;2023-05-10T01:37:05;100740.13;;;15.17;92.93
74370;BME280;62805;44.644;10.942;2023-05-10T01:42:31;100741.91;;;14.81;95.66
74370;BME280;62805;44.644;10.942;2023-05-10T01:45:33;100742.09;;;14.71;96.72
74370;BME280;62805;44.644;10.942;2023-05-10T01:48:05;100734.28;;;14.63;97.89
74370;BME280;62805;44.644;10.942;2023-05-10T01:50:32;100724.81;;;14.72;98.01
74370;BME280;62805;44.644;10.942;2023-05-10T01:53:00;100734.19;;;14.86;97.99
74370;BME280;62805;44.644;10.942;2023-05-10T01:55:30;100736.47;;;14.84;98.40
74370;BME280;62805;44.644;10.942;2023-05-10T01:58:10;100736.25;;;14.81;98.53
74370;BME280;62805;44.644;10.942;2023-05-10T02:00:40;100728.28;;;14.83;98.94
74370;BME280;62805;44.644;10.942;2023-05-10T02:03:08;100729.97;;;14.84;99.21
74370;BME280;62805;44.644;10.942;2023-05-10T02:05:36;100730.16;;;14.74;98.75
74370;BME280;62805;44.644;10.942;2023-05-10T02:08:05;100729.25;;;14.78;99.14
74370;BME280;62805;44.644;10.942;2023-05-10T02:10:32;100735.34;;;14.67;98.30
74370;BME280;62805;44.644;10.942;2023-05-10T02:12:59;100736.25;;;14.81;98.90
74370;BME280;62805;44.644;10.942;2023-05-10T02:15:26;100742.84;;;14.57;98.13
74370;BME280;62805;44.644;10.942;2023-05-10T02:17:54;100741.34;;;14.46;98.62
74370;BME280;62805;44.644;10.942;2023-05-10T02:20:21;100745.13;;;14.55;98.65
74370;BME280;62805;44.644;10.942;2023-05-10T02:22:50;100740.09;;;14.52;99.02
74370;BME280;62805;44.644;10.942;2023-05-10T02:25:18;100745.69;;;14.57;98.81
74370;BME280;62805;44.644;10.942;2023-05-10T02:27:44;100744.56;;;14.59;99.29
74370;BME280;62805;44.644;10.942;2023-05-10T02:30:11;100751.41;;;14.52;99.14
74370;BME280;62805;44.644;10.942;2023-05-10T02:32:37;100735.06;;;14.49;98.90
74370;BME280;62805;44.644;10.942;2023-05-10T02:35:04;100744.09;;;14.51;98.99
74370;BME280;62805;44.644;10.942;2023-05-10T02:37:30;100741.34;;;14.46;99.03
74370;BME280;62805;44.644;10.942;2023-05-10T02:39:58;100736.28;;;14.43;99.76
74370;BME280;62805;44.644;10.942;2023-05-10T02:42:26;100739.03;;;14.48;100.00
74370;BME280;62805;44.644;10.942;2023-05-10T02:44:56;100733.31;;;14.35;100.00
74370;BME280;62805;44.644;10.942;2023-05-10T02:47:22;100724.00;;;14.34;100.00
74370;BME280;62805;44.644;10.942;2023-05-10T02:49:48;100718.28;;;14.39;100.00
74370;BME280;62805;44.644;10.942;2023-05-10T02:52:16;100703.19;;;14.44;100.00
74370;BME280;62805;44.644;10.942;2023-05-10T02:54:45;100701.38;;;14.53;100.00
74370;BME280;62805;44.644;10.942;2023-05-10T02:57:26;100693.78;;;14.48;100.00
74370;BME280;62805;44.644;10.942;2023-05-10T02:59:52;100686.78;;;14.46;100.00
74370;BME280;62805;44.644;10.942;2023-05-10T03:02:18;100685.38;;;14.43;100.00
74370;BME280;62805;44.644;10.942;2023-05-10T03:04:43;100683.81;;;14.37;100.00
74370;BME280;62805;44.644;10.942;2023-05-10T03:07:09;100666.38;;;14.30;100.00
74370;BME280;62805;44.644;10.942;2023-05-10T03:09:34;100679.91;;;14.33;100.00
74370;BME280;62805;44.644;10.942;2023-05-10T03:12:27;100673.78;;;14.26;100.00
74370;BME280;62805;44.644;10.942;2023-05-10T03:15:02;100682.81;;;14.28;100.00
74370;BME280;62805;44.644;10.942;2023-05-10T03:17:45;100681.06;;;14.32;100.00
74370;BME280;62805;44.644;10.942;2023-05-10T03:20:20;100677.22;;;14.23;100.00
74370;BME280;62805;44.644;10.942;2023-05-10T03:22:51;100675.22;;;14.24;100.00
74370;BME280;62805;44.644;10.942;2023-05-10T03:25:19;100675.22;;;14.24;100.00
74370;BME280;62805;44.644;10.942;2023-05-10T03:27:46;100675.06;;;14.15;100.00
74370;BME280;62805;44.644;10.942;2023-05-10T03:30:13;100676.06;;;14.24;100.00
74370;BME280;62805;44.644;10.942;2023-05-10T03:32:39;100680.28;;;14.27;100.00
74370;BME280;62805;44.644;10.942;2023-05-10T03:35:08;100689.53;;;14.32;100.00
74370;BME280;62805;44.644;10.942;2023-05-10T03:37:34;100691.22;;;14.33;100.00
74370;BME280;62805;44.644;10.942;2023-05-10T03:40:00;100694.56;;;14.35;100.00
74370;BME280;62805;44.644;10.942;2023-05-10T03:42:26;100681.69;;;14.24;99.71
74370;BME280;62805;44.644;10.942;2023-05-10T03:44:51;100685.31;;;14.30;99.91
74370;BME280;62805;44.644;10.942;2023-05-10T03:47:16;100682.88;;;14.23;99.57
74370;BME280;62805;44.644;10.942;2023-05-10T03:49:42;100685.69;;;14.23;100.00
74370;BME280;62805;44.644;10.942;2023-05-10T03:52:07;100687.53;;;14.14;99.82
74370;BME280;62805;44.644;10.942;2023-05-10T03:54:32;100683.63;;;14.10;100.00
74370;BME280;62805;44.644;10.942;2023-05-10T03:56:58;100683.06;;;14.08;100.00
74370;BME280;62805;44.644;10.942;2023-05-10T03:59:23;100679.13;;;14.09;100.00
74370;BME280;62805;44.644;10.942;2023-05-10T04:01:48;100668.66;;;14.10;100.00
74370;BME280;62805;44.644;10.942;2023-05-10T04:04:14;100686.69;;;13.95;100.00
74370;BME280;62805;44.644;10.942;2023-05-10T04:06:39;100687.06;;;14.07;100.00
74370;BME280;62805;44.644;10.942;2023-05-10T04:09:04;100677.59;;;13.98;100.00
74370;BME280;62805;44.644;10.942;2023-05-10T04:11:30;100681.78;;;14.01;100.00
74370;BME280;62805;44.644;10.942;2023-05-10T04:13:55;100678.75;;;13.97;99.93
74370;BME280;62805;44.644;10.942;2023-05-10T04:16:21;100681.56;;;13.97;99.48
74370;BME280;62805;44.644;10.942;2023-05-10T04:18:47;100680.88;;;14.05;99.23
74370;BME280;62805;44.644;10.942;2023-05-10T04:21:13;100683.22;;;13.98;99.52
74370;BME280;62805;44.644;10.942;2023-05-10T04:23:39;100679.03;;;13.96;99.03
74370;BME280;62805;44.644;10.942;2023-05-10T04:26:04;100683.84;;;13.95;99.54
74370;BME280;62805;44.644;10.942;2023-05-10T04:28:30;100679.41;;;13.89;99.31
74370;BME280;62805;44.644;10.942;2023-05-10T04:31:05;100671.63;;;13.81;99.88
74370;BME280;62805;44.644;10.942;2023-05-10T04:33:30;100671.75;;;13.71;99.96
74370;BME280;62805;44.644;10.942;2023-05-10T04:35:56;100671.28;;;13.64;100.00
74370;BME280;62805;44.644;10.942;2023-05-10T04:38:22;100669.59;;;13.63;100.00
74370;BME280;62805;44.644;10.942;2023-05-10T04:40:47;100668.53;;;13.59;100.00
74370;BME280;62805;44.644;10.942;2023-05-10T04:43:12;100677.03;;;13.78;100.00
74370;BME280;62805;44.644;10.942;2023-05-10T04:45:38;100666.44;;;13.88;100.00
74370;BME280;62805;44.644;10.942;2023-05-10T04:48:03;100669.34;;;13.83;100.00
74370;BME280;62805;44.644;10.942;2023-05-10T04:50:29;100673.16;;;13.92;99.96
74370;BME280;62805;44.644;10.942;2023-05-10T04:52:54;100675.59;;;13.80;100.00
74370;BME280;62805;44.644;10.942;2023-05-10T04:55:19;100671.75;;;13.71;100.00
74370;BME280;62805;44.644;10.942;2023-05-10T04:57:45;100666.81;;;13.82;100.00
74370;BME280;62805;44.644;10.942;2023-05-10T05:00:11;100663.22;;;13.76;100.00
74370;BME280;62805;44.644;10.942;2023-05-10T05:02:36;100668.78;;;13.81;100.00
74370;BME280;62805;44.644;10.942;2023-05-10T05:05:02;100664.81;;;13.82;100.00
74370;BME280;62805;44.644;10.942;2023-05-10T05:07:27;100669.72;;;13.77;100.00
74370;BME280;62805;44.644;10.942;2023-05-10T05:09:52;100671.00;;;13.84;100.00
74370;BME280;62805;44.644;10.942;2023-05-10T05:12:18;100659.13;;;13.87;100.00
74370;BME280;62805;44.644;10.942;2023-05-10T05:14:43;100665.59;;;13.88;100.00
74370;BME280;62805;44.644;10.942;2023-05-10T05:17:09;100665.19;;;13.94;100.00
74370;BME280;62805;44.644;10.942;2023-05-10T05:19:34;100660.00;;;13.83;100.00
74370;BME280;62805;44.644;10.942;2023-05-10T05:21:59;100665.97;;;13.81;100.00
74370;BME280;62805;44.644;10.942;2023-05-10T05:24:25;100668.25;;;13.79;100.00
74370;BME280;62805;44.644;10.942;2023-05-10T05:26:50;100675.84;;;13.84;99.96
74370;BME280;62805;44.644;10.942;2023-05-10T05:29:15;100665.91;;;13.86;99.83
74370;BME280;62805;44.644;10.942;2023-05-10T05:31:41;100671.06;;;13.79;100.00
74370;BME280;62805;44.644;10.942;2023-05-10T05:34:06;100673.91;;;13.79;100.00
74370;BME280;62805;44.644;10.942;2023-05-10T05:36:31;100670.47;;;13.82;99.98
74370;BME280;62805;44.644;10.942;2023-05-10T05:38:57;100672.63;;;13.90;100.00
74370;BME280;62805;44.644;10.942;2023-05-10T05:41:23;100662.84;;;13.83;100.00
74370;BME280;62805;44.644;10.942;2023-05-10T05:43:49;100676.38;;;14.04;99.45
74370;BME280;62805;44.644;10.942;2023-05-10T05:46:15;100675.75;;;14.07;99.66
74370;BME280;62805;44.644;10.942;2023-05-10T05:48:40;100672.16;;;14.02;99.32
74370;BME280;62805;44.644;10.942;2023-05-10T05:51:05;100671.31;;;14.01;99.74
74370;BME280;62805;44.644;10.942;2023-05-10T05:53:31;100667.28;;;13.89;99.90
74370;BME280;62805;44.644;10.942;2023-05-10T05:55:58;100677.59;;;13.98;100.00
74370;BME280;62805;44.644;10.942;2023-05-10T05:58:26;100669.03;;;14.03;100.00
74370;BME280;62805;44.644;10.942;2023-05-10T06:00:52;100673.09;;;13.97;100.00
74370;BME280;62805;44.644;10.942;2023-05-10T06:03:18;100678.34;;;13.85;100.00
74370;BME280;62805;44.644;10.942;2023-05-10T06:05:43;100683.38;;;13.88;100.00
74370;BME280;62805;44.644;10.942;2023-05-10T06:08:09;100682.16;;;13.94;100.00
74370;BME280;62805;44.644;10.942;2023-05-10T06:10:35;100678.69;;;13.79;100.00
74370;BME280;62805;44.644;10.942;2023-05-10T06:13:00;100678.94;;;13.82;99.89
74370;BME280;62805;44.644;10.942;2023-05-10T06:15:25;100685.75;;;13.81;99.94
74370;BME280;62805;44.644;10.942;2023-05-10T06:17:51;100663.47;;;13.56;100.00
74370;BME280;62805;44.644;10.942;2023-05-10T06:20:16;100679.56;;;13.79;100.00
74370;BME280;62805;44.644;10.942;2023-05-10T06:22:42;100681.19;;;13.85;100.00
74370;BME280;62805;44.644;10.942;2023-05-10T06:25:08;100684.00;;;13.85;100.00
74370;BME280;62805;44.644;10.942;2023-05-10T06:27:33;100679.41;;;13.47;100.00
74370;BME280;62805;44.644;10.942;2023-05-10T06:29:59;100683.19;;;13.61;100.00
74370;BME280;62805;44.644;10.942;2023-05-10T06:32:24;100679.16;;;13.67;100.00
74370;BME280;62805;44.644;10.942;2023-05-10T06:34:50;100680.53;;;13.70;100.00
74370;BME280;62805;44.644;10.942;2023-05-10T06:37:16;100678.53;;;13.70;100.00
74370;BME280;62805;44.644;10.942;2023-05-10T06:39:41;100692.31;;;13.53;100.00
74370;BME280;62805;44.644;10.942;2023-05-10T06:42:06;100679.59;;;13.56;100.00
74370;BME280;62805;44.644;10.942;2023-05-10T06:44:32;100686.44;;;13.73;100.00
74370;BME280;62805;44.644;10.942;2023-05-10T06:46:57;100675.25;;;13.63;100.00
74370;BME280;62805;44.644;10.942;2023-05-10T06:49:22;100682.59;;;13.64;100.00
74370;BME280;62805;44.644;10.942;2023-05-10T06:51:48;100691.13;;;13.59;100.00
74370;BME280;62805;44.644;10.942;2023-05-10T06:54:13;100687.63;;;13.67;100.00
74370;BME280;62805;44.644;10.942;2023-05-10T06:56:39;100687.63;;;13.67;100.00
74370;BME280;62805;44.644;10.942;2023-05-10T06:59:04;100683.06;;;13.71;100.00
74370;BME280;62805;44.644;10.942;2023-05-10T07:01:29;100684.13;;;13.75;100.00
74370;BME280;62805;44.644;10.942;2023-05-10T07:03:55;100685.81;;;13.76;100.00
74370;BME280;62805;44.644;10.942;2023-05-10T07:06:20;100684.91;;;13.81;100.00
74370;BME280;62805;44.644;10.942;2023-05-10T07:08:45;100688.81;;;13.85;100.00
74370;BME280;62805;44.644;10.942;2023-05-10T07:11:11;100694.63;;;13.93;100.00
74370;BME280;62805;44.644;10.942;2023-05-10T07:13:36;100686.28;;;13.83;100.00
74370;BME280;62805;44.644;10.942;2023-05-10T07:16:05;100702.09;;;13.84;100.00
74370;BME280;62805;44.644;10.942;2023-05-10T07:18:31;100692.31;;;13.95;100.00
74370;BME280;62805;44.644;10.942;2023-05-10T07:20:57;100685.19;;;13.79;100.00
74370;BME280;62805;44.644;10.942;2023-05-10T07:23:22;100691.22;;;13.73;100.00
74370;BME280;62805;44.644;10.942;2023-05-10T07:25:49;100689.66;;;13.85;100.00
74370;BME280;62805;44.644;10.942;2023-05-10T07:28:15;100695.16;;;13.95;100.00
74370;BME280;62805;44.644;10.942;2023-05-10T07:30:41;100692.56;;;13.80;100.00
74370;BME280;62805;44.644;10.942;2023-05-10T07:33:08;100699.88;;;13.81;100.00
74370;BME280;62805;44.644;10.942;2023-05-10T07:35:34;100692.66;;;13.70;100.00
74370;BME280;62805;44.644;10.942;2023-05-10T07:37:59;100699.25;;;13.84;100.00
